sensor_id;sensor_type;location;lat;lon;timestamp;pressure;altitude;pressure_sealevel;temperature;humidity
56142;BME280;42018;48.588;10.836;2023-08-06T00:00:53;96060.31;;;17.44;75.52
56142;BME280;42018;48.588;10.836;2023-08-06T00:03:38;96053.56;;;17.38;76.20
56142;BME280;42018;48.588;10.836;2023-08-06T00:06:23;96060.41;;;17.27;76.56
56142;BME280;42018;48.588;10.836;2023-08-06T00:09:09;96059.28;;;17.28;77.21
56142;BME280;42018;48.588;10.836;2023-08-06T00:11:54;96058.44;;;17.36;76.55
56142;BME280;42018;48.588;10.836;2023-08-06T00:14:40;96059.78;;;17.30;76.25
56142;BME280;42018;48.588;10.836;2023-08-06T00:17:25;96062.25;;;17.35;76.04
56142;BME280;42018;48.588;10.836;2023-08-06T00:20:11;96064.13;;;17.34;76.30
56142;BME280;42018;48.588;10.836;2023-08-06T00:22:56;96065.25;;;17.33;76.69
56142;BME280;42018;48.588;10.836;2023-08-06T00:25:41;96058.66;;;17.31;76.90
56142;BME280;42018;48.588;10.836;2023-08-06T00:28:27;96054.50;;;17.12;76.80
56142;BME280;42018;48.588;10.836;2023-08-06T00:31:12;96052.19;;;17.02;77.34
56142;BME280;42018;48.588;10.836;2023-08-06T00:33:57;96043.97;;;17.07;77.12
56142;BME280;42018;48.588;10.836;2023-08-06T00:36:43;96043.16;;;17.15;76.62
56142;BME280;42018;48.588;10.836;2023-08-06T00:39:28;96050.72;;;17.13;76.20
56142;BME280;42018;48.588;10.836;2023-08-06T00:42:13;96043.22;;;17.28;75.55
56142;BME280;42018;48.588;10.836;2023-08-06T00:44:59;96044.66;;;17.25;76.12
56142;BME280;42018;48.588;10.836;2023-08-06T00:47:45;96046.56;;;17.24;76.66
56142;BME280;42018;48.588;10.836;2023-08-06T00:50:31;96048.41;;;17.33;75.48
56142;BME280;42018;48.588;10.836;2023-08-06T00:53:16;96043.72;;;17.51;74.59
56142;BME280;42018;48.588;10.836;2023-08-06T00:56:02;96046.66;;;17.37;75.92
56142;BME280;42018;48.588;10.836;2023-08-06T00:58:47;96046.19;;;17.35;75.89
56142;BME280;42018;48.588;10.836;2023-08-06T01:01:33;96037.84;;;17.36;75.79
56142;BME280;42018;48.588;10.836;2023-08-06T01:04:18;96037.97;;;17.40;75.35
56142;BME280;42018;48.588;10.836;2023-08-06T01:07:25;96038.63;;;17.37;75.11
56142;BME280;42018;48.588;10.836;2023-08-06T01:10:44;96042.91;;;17.50;75.38
56142;BME280;42018;48.588;10.836;2023-08-06T01:14:17;96036.59;;;17.34;75.91
56142;BME280;42018;48.588;10.836;2023-08-06T01:17:07;96039.13;;;17.30;76.51
56142;BME280;42018;48.588;10.836;2023-08-06T01:19:53;96043.03;;;17.12;77.08
56142;BME280;42018;48.588;10.836;2023-08-06T01:22:38;96053.31;;;17.01;78.49
56142;BME280;42018;48.588;10.836;2023-08-06T01:25:30;96051.00;;;16.91;77.43
56142;BME280;42018;48.588;10.836;2023-08-06T01:28:59;96039.09;;;16.80;77.64
56142;BME280;42018;48.588;10.836;2023-08-06T01:31:50;96041.00;;;16.70;79.37
56142;BME280;42018;48.588;10.836;2023-08-06T01:34:37;96041.88;;;16.92;78.74
56142;BME280;42018;48.588;10.836;2023-08-06T01:37:24;96043.06;;;17.03;77.58
56142;BME280;42018;48.588;10.836;2023-08-06T01:40:10;96030.78;;;17.02;77.57
56142;BME280;42018;48.588;10.836;2023-08-06T01:42:56;96037.78;;;16.86;79.08
56142;BME280;42018;48.588;10.836;2023-08-06T01:45:42;96027.44;;;16.84;78.67
56142;BME280;42018;48.588;10.836;2023-08-06T01:48:27;96027.44;;;16.84;78.49
56142;BME280;42018;48.588;10.836;2023-08-06T01:51:13;96025.16;;;16.95;77.48
56142;BME280;42018;48.588;10.836;2023-08-06T01:53:58;96021.28;;;16.84;77.54
56142;BME280;42018;48.588;10.836;2023-08-06T01:56:43;96016.13;;;16.79;78.19
56142;BME280;42018;48.588;10.836;2023-08-06T01:59:29;96009.22;;;16.69;79.19
56142;BME280;42018;48.588;10.836;2023-08-06T02:02:14;96012.06;;;16.64;79.71
56142;BME280;42018;48.588;10.836;2023-08-06T02:04:59;96009.63;;;16.88;78.46
56142;BME280;42018;48.588;10.836;2023-08-06T02:07:45;96007.31;;;16.78;78.84
56142;BME280;42018;48.588;10.836;2023-08-06T02:10:30;95999.34;;;16.61;78.83
56142;BME280;42018;48.588;10.836;2023-08-06T02:13:15;95983.63;;;16.59;79.30
56142;BME280;42018;48.588;10.836;2023-08-06T02:16:01;95979.88;;;16.51;79.80
56142;BME280;42018;48.588;10.836;2023-08-06T02:18:46;95976.88;;;16.53;79.61
56142;BME280;42018;48.588;10.836;2023-08-06T02:21:31;95963.72;;;16.39;79.49
56142;BME280;42018;48.588;10.836;2023-08-06T02:24:17;95947.88;;;16.64;78.68
56142;BME280;42018;48.588;10.836;2023-08-06T02:27:02;95944.03;;;16.82;78.49
56142;BME280;42018;48.588;10.836;2023-08-06T02:29:48;95951.16;;;16.99;76.69
56142;BME280;42018;48.588;10.836;2023-08-06T02:32:33;95970.00;;;16.82;77.37
56142;BME280;42018;48.588;10.836;2023-08-06T02:35:20;95973.19;;;16.75;78.14
56142;BME280;42018;48.588;10.836;2023-08-06T02:38:06;95983.06;;;16.45;79.83
56142;BME280;42018;48.588;10.836;2023-08-06T02:40:51;95999.25;;;15.93;82.97
56142;BME280;42018;48.588;10.836;2023-08-06T02:43:36;95996.13;;;15.91;84.09
56142;BME280;42018;48.588;10.836;2023-08-06T02:46:22;95993.78;;;15.80;84.85
56142;BME280;42018;48.588;10.836;2023-08-06T02:49:07;95984.03;;;15.85;84.69
56142;BME280;42018;48.588;10.836;2023-08-06T02:51:53;95989.25;;;15.72;83.87
56142;BME280;42018;48.588;10.836;2023-08-06T02:54:38;95978.06;;;15.44;85.58
56142;BME280;42018;48.588;10.836;2023-08-06T02:57:23;95977.13;;;15.49;85.58
56142;BME280;42018;48.588;10.836;2023-08-06T03:00:09;95975.69;;;15.43;85.59
56142;BME280;42018;48.588;10.836;2023-08-06T03:02:56;95969.75;;;15.37;86.35
56142;BME280;42018;48.588;10.836;2023-08-06T03:05:51;95968.81;;;15.42;84.79
56142;BME280;42018;48.588;10.836;2023-08-06T03:08:37;95976.94;;;15.11;87.17
56142;BME280;42018;48.588;10.836;2023-08-06T03:11:22;95959.69;;;14.99;87.98
56142;BME280;42018;48.588;10.836;2023-08-06T03:14:07;95960.13;;;14.93;88.03
56142;BME280;42018;48.588;10.836;2023-08-06T03:16:53;95952.31;;;14.88;88.68
56142;BME280;42018;48.588;10.836;2023-08-06T03:19:38;95950.41;;;14.88;89.08
56142;BME280;42018;48.588;10.836;2023-08-06T03:22:23;95942.56;;;15.00;88.75
56142;BME280;42018;48.588;10.836;2023-08-06T03:25:09;95940.06;;;14.95;88.24
56142;BME280;42018;48.588;10.836;2023-08-06T03:27:54;95944.13;;;14.93;88.81
56142;BME280;42018;48.588;10.836;2023-08-06T03:30:39;95941.16;;;14.85;89.55
56142;BME280;42018;48.588;10.836;2023-08-06T03:33:25;95942.22;;;14.76;90.81
56142;BME280;42018;48.588;10.836;2023-08-06T03:36:10;95945.81;;;14.71;91.17
56142;BME280;42018;48.588;10.836;2023-08-06T03:38:56;95941.00;;;14.82;90.20
56142;BME280;42018;48.588;10.836;2023-08-06T03:41:41;95935.50;;;14.96;89.33
56142;BME280;42018;48.588;10.836;2023-08-06T03:44:26;95935.50;;;14.96;89.61
56142;BME280;42018;48.588;10.836;2023-08-06T03:47:13;95930.00;;;15.01;88.58
56142;BME280;42018;48.588;10.836;2023-08-06T03:49:59;95936.63;;;15.03;88.17
56142;BME280;42018;48.588;10.836;2023-08-06T03:52:44;95932.38;;;14.76;89.12
56142;BME280;42018;48.588;10.836;2023-08-06T03:55:29;95935.94;;;14.72;89.78
56142;BME280;42018;48.588;10.836;2023-08-06T03:58:15;95940.97;;;14.73;90.00
56142;BME280;42018;48.588;10.836;2023-08-06T04:01:02;95941.88;;;14.60;90.37
56142;BME280;42018;48.588;10.836;2023-08-06T04:03:48;95939.88;;;14.74;90.02
56142;BME280;42018;48.588;10.836;2023-08-06T04:06:33;95938.81;;;14.84;89.48
56142;BME280;42018;48.588;10.836;2023-08-06T04:09:18;95933.63;;;14.88;88.98
56142;BME280;42018;48.588;10.836;2023-08-06T04:12:04;95940.38;;;14.85;89.01
56142;BME280;42018;48.588;10.836;2023-08-06T04:14:51;95935.81;;;14.85;88.96
56142;BME280;42018;48.588;10.836;2023-08-06T04:17:37;95946.16;;;14.78;88.71
56142;BME280;42018;48.588;10.836;2023-08-06T04:20:22;95939.88;;;14.66;89.29
56142;BME280;42018;48.588;10.836;2023-08-06T04:23:07;95943.78;;;14.59;89.39
56142;BME280;42018;48.588;10.836;2023-08-06T04:25:56;95949.47;;;14.44;89.30
56142;BME280;42018;48.588;10.836;2023-08-06T04:28:42;95942.75;;;14.47;89.77
56142;BME280;42018;48.588;10.836;2023-08-06T04:31:28;95936.97;;;14.45;89.13
56142;BME280;42018;48.588;10.836;2023-08-06T04:34:14;95926.75;;;14.38;89.85
56142;BME280;42018;48.588;10.836;2023-08-06T04:36:59;95935.75;;;14.51;89.52
56142;BME280;42018;48.588;10.836;2023-08-06T04:39:45;95932.63;;;14.57;88.60
56142;BME280;42018;48.588;10.836;2023-08-06T04:42:30;95934.53;;;14.74;87.15
56142;BME280;42018;48.588;10.836;2023-08-06T04:45:16;95936.88;;;14.67;86.62
56142;BME280;42018;48.588;10.836;2023-08-06T04:48:01;95923.88;;;14.74;86.95
56142;BME280;42018;48.588;10.836;2023-08-06T04:50:48;95919.19;;;14.89;86.21
56142;BME280;42018;48.588;10.836;2023-08-06T04:53:33;95927.66;;;14.99;85.17
56142;BME280;42018;48.588;10.836;2023-08-06T04:56:19;95928.88;;;14.76;87.21
56142;BME280;42018;48.588;10.836;2023-08-06T04:59:04;95928.44;;;14.82;87.22
56142;BME280;42018;48.588;10.836;2023-08-06T05:01:49;95924.97;;;14.73;87.87
56142;BME280;42018;48.588;10.836;2023-08-06T05:04:35;95925.13;;;14.59;88.83
56142;BME280;42018;48.588;10.836;2023-08-06T05:07:20;95923.56;;;14.76;88.80
56142;BME280;42018;48.588;10.836;2023-08-06T05:10:06;95927.47;;;14.61;88.42
56142;BME280;42018;48.588;10.836;2023-08-06T05:12:52;95922.16;;;14.30;89.56
56142;BME280;42018;48.588;10.836;2023-08-06T05:15:37;95917.66;;;14.39;88.86
56142;BME280;42018;48.588;10.836;2023-08-06T05:18:24;95923.69;;;14.62;88.24
56142;BME280;42018;48.588;10.836;2023-08-06T05:21:10;95919.00;;;14.59;87.98
56142;BME280;42018;48.588;10.836;2023-08-06T05:23:55;95922.81;;;14.35;88.66
56142;BME280;42018;48.588;10.836;2023-08-06T05:26:40;95923.50;;;14.50;88.49
56142;BME280;42018;48.588;10.836;2023-08-06T05:29:26;95922.16;;;14.70;88.25
56142;BME280;42018;48.588;10.836;2023-08-06T05:32:12;95927.31;;;14.66;88.09
56142;BME280;42018;48.588;10.836;2023-08-06T05:34:57;95921.38;;;14.69;88.56
56142;BME280;42018;48.588;10.836;2023-08-06T05:37:43;95922.91;;;14.61;88.28
56142;BME280;42018;48.588;10.836;2023-08-06T05:40:28;95920.09;;;14.75;87.26
56142;BME280;42018;48.588;10.836;2023-08-06T05:43:13;95913.22;;;14.66;87.91
56142;BME280;42018;48.588;10.836;2023-08-06T05:45:59;95914.28;;;14.65;88.70
56142;BME280;42018;48.588;10.836;2023-08-06T05:48:44;95908.97;;;14.82;88.77
56142;BME280;42018;48.588;10.836;2023-08-06T05:51:29;95909.16;;;14.85;88.46
56142;BME280;42018;48.588;10.836;2023-08-06T05:54:14;95905.88;;;15.06;87.84
56142;BME280;42018;48.588;10.836;2023-08-06T05:57:00;95901.31;;;14.98;87.33
56142;BME280;42018;48.588;10.836;2023-08-06T05:59:45;95910.22;;;14.67;88.68
56142;BME280;42018;48.588;10.836;2023-08-06T06:02:30;95901.59;;;14.79;88.47
56142;BME280;42018;48.588;10.836;2023-08-06T06:05:16;95900.53;;;14.89;88.48
56142;BME280;42018;48.588;10.836;2023-08-06T06:08:01;95904.13;;;15.19;88.32
56142;BME280;42018;48.588;10.836;2023-08-06T06:10:47;95910.88;;;15.16;85.17
56142;BME280;42018;48.588;10.836;2023-08-06T06:13:32;95900.50;;;15.32;85.00
56142;BME280;42018;48.588;10.836;2023-08-06T06:16:18;95897.38;;;15.30;84.88
56142;BME280;42018;48.588;10.836;2023-08-06T06:19:03;95900.69;;;15.09;85.17
56142;BME280;42018;48.588;10.836;2023-08-06T06:21:48;95890.94;;;14.79;87.28
56142;BME280;42018;48.588;10.836;2023-08-06T06:24:34;95888.91;;;15.19;86.94
56142;BME280;42018;48.588;10.836;2023-08-06T06:27:19;95891.59;;;15.19;84.43
56142;BME280;42018;48.588;10.836;2023-08-06T06:30:05;95887.47;;;15.39;83.34
56142;BME280;42018;48.588;10.836;2023-08-06T06:32:50;95883.94;;;15.82;82.87
56142;BME280;42018;48.588;10.836;2023-08-06T06:35:36;95889.03;;;15.66;83.60
56142;BME280;42018;48.588;10.836;2023-08-06T06:38:22;95896.38;;;15.61;83.87
56142;BME280;42018;48.588;10.836;2023-08-06T06:41:07;95900.19;;;15.42;82.84
56142;BME280;42018;48.588;10.836;2023-08-06T06:43:52;95907.28;;;15.12;84.21
56142;BME280;42018;48.588;10.836;2023-08-06T06:46:38;95903.50;;;14.96;85.29
56142;BME280;42018;48.588;10.836;2023-08-06T06:49:23;95908.84;;;15.22;85.05
56142;BME280;42018;48.588;10.836;2023-08-06T06:52:08;95896.63;;;15.12;84.28
56142;BME280;42018;48.588;10.836;2023-08-06T06:54:54;95900.34;;;15.11;84.47
56142;BME280;42018;48.588;10.836;2023-08-06T06:57:39;95899.75;;;15.23;84.16
56142;BME280;42018;48.588;10.836;2023-08-06T07:00:24;95902.19;;;15.63;83.21
56142;BME280;42018;48.588;10.836;2023-08-06T07:03:10;95896.41;;;15.43;82.64
56142;BME280;42018;48.588;10.836;2023-08-06T07:05:58;95905.09;;;15.23;82.97
56142;BME280;42018;48.588;10.836;2023-08-06T07:08:45;95895.00;;;15.46;83.57
56142;BME280;42018;48.588;10.836;2023-08-06T07:11:30;95891.59;;;15.19;82.83
56142;BME280;42018;48.588;10.836;2023-08-06T07:14:17;95894.66;;;15.56;82.03
56142;BME280;42018;48.588;10.836;2023-08-06T07:17:02;95895.16;;;15.49;80.47
56142;BME280;42018;48.588;10.836;2023-08-06T07:19:47;95893.91;;;15.38;80.63
56142;BME280;42018;48.588;10.836;2023-08-06T07:22:33;95895.00;;;15.28;80.28
56142;BME280;42018;48.588;10.836;2023-08-06T07:25:18;95901.91;;;15.29;80.22
56142;BME280;42018;48.588;10.836;2023-08-06T07:28:04;95900.47;;;15.49;80.21
56142;BME280;42018;48.588;10.836;2023-08-06T07:30:50;95904.44;;;15.35;79.32
56142;BME280;42018;48.588;10.836;2023-08-06T07:33:35;95913.19;;;15.70;79.35
56142;BME280;42018;48.588;10.836;2023-08-06T07:36:21;95919.78;;;15.81;78.68
56142;BME280;42018;48.588;10.836;2023-08-06T07:39:06;95914.44;;;15.81;76.81
56142;BME280;42018;48.588;10.836;2023-08-06T07:41:52;95917.28;;;15.59;76.37
56142;BME280;42018;48.588;10.836;2023-08-06T07:44:37;95917.09;;;15.64;76.79
56142;BME280;42018;48.588;10.836;2023-08-06T07:47:23;95913.75;;;15.93;76.93
56142;BME280;42018;48.588;10.836;2023-08-06T07:50:09;95915.25;;;16.11;74.76
56142;BME280;42018;48.588;10.836;2023-08-06T07:52:54;95908.59;;;16.56;74.14
56142;BME280;42018;48.588;10.836;2023-08-06T07:55:40;95924.53;;;16.43;72.98
56142;BME280;42018;48.588;10.836;2023-08-06T07:58:26;95912.34;;;16.34;72.66
56142;BME280;42018;48.588;10.836;2023-08-06T08:01:12;95917.50;;;16.39;73.55
56142;BME280;42018;48.588;10.836;2023-08-06T08:03:57;95912.28;;;16.42;73.33
56142;BME280;42018;48.588;10.836;2023-08-06T08:06:42;95918.59;;;16.67;71.66
56142;BME280;42018;48.588;10.836;2023-08-06T08:09:28;95920.84;;;16.57;72.74
56142;BME280;42018;48.588;10.836;2023-08-06T08:12:13;95930.78;;;16.26;72.93
56142;BME280;42018;48.588;10.836;2023-08-06T08:14:59;95930.66;;;16.14;72.44
56142;BME280;42018;48.588;10.836;2023-08-06T08:17:44;95930.16;;;15.74;72.38
56142;BME280;42018;48.588;10.836;2023-08-06T08:20:29;95920.28;;;15.66;73.04
56142;BME280;42018;48.588;10.836;2023-08-06T08:23:17;95927.94;;;15.85;73.27
56142;BME280;42018;48.588;10.836;2023-08-06T08:26:02;95930.47;;;15.55;74.43
56142;BME280;42018;48.588;10.836;2023-08-06T08:28:48;95928.56;;;15.64;74.18
56142;BME280;42018;48.588;10.836;2023-08-06T08:31:34;95927.97;;;15.50;74.79
56142;BME280;42018;48.588;10.836;2023-08-06T08:34:24;95920.53;;;15.90;74.26
56142;BME280;42018;48.588;10.836;2023-08-06T08:37:13;95918.13;;;16.06;73.43
56142;BME280;42018;48.588;10.836;2023-08-06T08:39:58;95918.47;;;16.34;73.22
56142;BME280;42018;48.588;10.836;2023-08-06T08:42:46;95928.47;;;16.46;71.51
56142;BME280;42018;48.588;10.836;2023-08-06T08:45:34;95917.81;;;16.75;71.92
56142;BME280;42018;48.588;10.836;2023-08-06T08:48:21;95930.72;;;16.65;69.69
56142;BME280;42018;48.588;10.836;2023-08-06T08:51:07;95921.09;;;16.43;68.61
56142;BME280;42018;48.588;10.836;2023-08-06T08:53:54;95924.88;;;16.42;70.78
56142;BME280;42018;48.588;10.836;2023-08-06T08:56:41;95926.28;;;16.78;72.90
56142;BME280;42018;48.588;10.836;2023-08-06T08:59:27;95930.91;;;16.30;71.99
56142;BME280;42018;48.588;10.836;2023-08-06T09:02:14;95921.16;;;16.34;70.53
56142;BME280;42018;48.588;10.836;2023-08-06T09:05:01;95926.94;;;16.36;70.50
56142;BME280;42018;48.588;10.836;2023-08-06T09:07:48;95916.78;;;16.30;70.50
56142;BME280;42018;48.588;10.836;2023-08-06T09:10:34;95920.59;;;16.11;70.69
56142;BME280;42018;48.588;10.836;2023-08-06T09:13:22;95937.75;;;16.10;70.60
56142;BME280;42018;48.588;10.836;2023-08-06T09:16:08;95948.47;;;15.93;72.45
56142;BME280;42018;48.588;10.836;2023-08-06T09:19:06;95939.56;;;15.71;73.86
56142;BME280;42018;48.588;10.836;2023-08-06T09:21:53;95934.50;;;15.96;75.09
56142;BME280;42018;48.588;10.836;2023-08-06T09:24:43;95935.16;;;15.58;75.61
56142;BME280;42018;48.588;10.836;2023-08-06T09:27:29;95919.03;;;16.48;74.09
56142;BME280;42018;48.588;10.836;2023-08-06T09:30:29;95933.75;;;16.25;69.61
56142;BME280;42018;48.588;10.836;2023-08-06T09:33:18;95923.41;;;16.23;71.60
56142;BME280;42018;48.588;10.836;2023-08-06T09:36:10;95920.28;;;16.81;70.42
56142;BME280;42018;48.588;10.836;2023-08-06T09:38:56;95918.44;;;17.14;67.40
56142;BME280;42018;48.588;10.836;2023-08-06T09:41:42;95933.44;;;16.56;68.51
56142;BME280;42018;48.588;10.836;2023-08-06T09:44:31;95930.03;;;16.47;72.59
56142;BME280;42018;48.588;10.836;2023-08-06T09:47:17;95937.50;;;16.33;76.31
56142;BME280;42018;48.588;10.836;2023-08-06T09:50:03;95942.94;;;16.07;73.68
56142;BME280;42018;48.588;10.836;2023-08-06T09:52:51;95943.44;;;16.38;72.95
56142;BME280;42018;48.588;10.836;2023-08-06T09:55:37;95935.47;;;16.59;71.92
56142;BME280;42018;48.588;10.836;2023-08-06T09:58:24;95938.03;;;16.47;72.91
56142;BME280;42018;48.588;10.836;2023-08-06T10:01:10;95942.97;;;15.98;76.34
56142;BME280;42018;48.588;10.836;2023-08-06T10:03:57;95940.34;;;15.80;82.31
56142;BME280;42018;48.588;10.836;2023-08-06T10:06:46;95949.00;;;15.43;81.78
56142;BME280;42018;48.588;10.836;2023-08-06T10:09:32;95952.47;;;15.69;82.52
56142;BME280;42018;48.588;10.836;2023-08-06T10:12:18;95947.44;;;15.33;83.14
56142;BME280;42018;48.588;10.836;2023-08-06T10:15:11;95947.91;;;15.44;82.47
56142;BME280;42018;48.588;10.836;2023-08-06T10:17:59;95940.69;;;15.53;81.51
56142;BME280;42018;48.588;10.836;2023-08-06T10:20:46;95937.44;;;16.03;79.59
56142;BME280;42018;48.588;10.836;2023-08-06T10:23:36;95932.06;;;16.50;77.84
56142;BME280;42018;48.588;10.836;2023-08-06T10:26:26;95926.72;;;16.50;74.86
56142;BME280;42018;48.588;10.836;2023-08-06T10:29:34;95930.84;;;16.47;75.35
56142;BME280;42018;48.588;10.836;2023-08-06T10:32:20;95923.16;;;16.75;74.26
56142;BME280;42018;48.588;10.836;2023-08-06T10:35:07;95920.94;;;16.78;74.08
56142;BME280;42018;48.588;10.836;2023-08-06T10:38:13;95929.75;;;16.99;74.01
56142;BME280;42018;48.588;10.836;2023-08-06T10:43:47;95939.44;;;15.68;78.49
56142;BME280;42018;48.588;10.836;2023-08-06T10:46:32;95967.22;;;15.06;87.13
56142;BME280;42018;48.588;10.836;2023-08-06T10:49:18;95966.38;;;14.79;88.43
56142;BME280;42018;48.588;10.836;2023-08-06T10:52:04;95967.78;;;14.68;91.15
56142;BME280;42018;48.588;10.836;2023-08-06T10:54:49;95974.81;;;14.24;91.85
56142;BME280;42018;48.588;10.836;2023-08-06T10:57:35;95962.47;;;14.37;93.93
56142;BME280;42018;48.588;10.836;2023-08-06T11:00:24;95966.72;;;14.38;91.86
56142;BME280;42018;48.588;10.836;2023-08-06T11:03:10;95966.50;;;14.57;92.16
56142;BME280;42018;48.588;10.836;2023-08-06T11:05:55;95963.75;;;14.88;91.61
56142;BME280;42018;48.588;10.836;2023-08-06T11:08:47;95960.47;;;15.00;90.02
56142;BME280;42018;48.588;10.836;2023-08-06T11:11:33;95949.00;;;14.91;86.82
56142;BME280;42018;48.588;10.836;2023-08-06T11:14:18;95948.38;;;14.94;89.22
56142;BME280;42018;48.588;10.836;2023-08-06T11:17:04;95945.22;;;15.44;86.80
56142;BME280;42018;48.588;10.836;2023-08-06T11:19:50;95941.75;;;15.78;82.22
56142;BME280;42018;48.588;10.836;2023-08-06T11:22:36;95954.00;;;15.62;84.26
56142;BME280;42018;48.588;10.836;2023-08-06T11:25:22;95924.56;;;16.05;81.93
56142;BME280;42018;48.588;10.836;2023-08-06T11:28:07;95946.97;;;15.83;79.80
56142;BME280;42018;48.588;10.836;2023-08-06T11:30:53;95945.66;;;15.98;80.81
56142;BME280;42018;48.588;10.836;2023-08-06T11:33:40;95950.22;;;15.97;77.71
56142;BME280;42018;48.588;10.836;2023-08-06T11:36:30;95936.97;;;16.10;76.76
56142;BME280;42018;48.588;10.836;2023-08-06T11:39:16;95938.00;;;16.26;77.54
56142;BME280;42018;48.588;10.836;2023-08-06T11:42:03;95945.38;;;16.29;75.51
56142;BME280;42018;48.588;10.836;2023-08-06T11:44:49;95950.22;;;15.89;77.64
56142;BME280;42018;48.588;10.836;2023-08-06T11:47:38;95944.78;;;16.23;77.15
56142;BME280;42018;48.588;10.836;2023-08-06T11:50:24;95933.25;;;16.61;74.08
56142;BME280;42018;48.588;10.836;2023-08-06T11:53:13;95939.06;;;16.63;73.09
56142;BME280;42018;48.588;10.836;2023-08-06T11:55:59;95949.59;;;15.92;73.33
56142;BME280;42018;48.588;10.836;2023-08-06T11:58:44;95933.03;;;16.16;72.54
56142;BME280;42018;48.588;10.836;2023-08-06T12:01:30;95940.22;;;16.24;71.62
56142;BME280;42018;48.588;10.836;2023-08-06T12:04:15;95967.63;;;16.03;72.33
56142;BME280;42018;48.588;10.836;2023-08-06T12:07:06;95946.25;;;16.03;71.10
56142;BME280;42018;48.588;10.836;2023-08-06T12:09:53;95936.00;;;16.14;71.54
56142;BME280;42018;48.588;10.836;2023-08-06T12:12:38;95948.03;;;16.29;73.20
56142;BME280;42018;48.588;10.836;2023-08-06T12:15:24;95956.38;;;16.27;71.00
56142;BME280;42018;48.588;10.836;2023-08-06T12:18:09;95967.44;;;16.56;71.18
56142;BME280;42018;48.588;10.836;2023-08-06T12:20:54;95952.38;;;16.42;72.55
56142;BME280;42018;48.588;10.836;2023-08-06T12:23:40;95947.44;;;17.12;70.68
56142;BME280;42018;48.588;10.836;2023-08-06T12:26:25;95956.25;;;16.53;71.51
56142;BME280;42018;48.588;10.836;2023-08-06T12:29:10;95951.91;;;16.79;69.94
56142;BME280;42018;48.588;10.836;2023-08-06T12:31:56;95949.41;;;17.03;71.99
56142;BME280;42018;48.588;10.836;2023-08-06T12:34:42;95958.72;;;16.76;69.93
56142;BME280;42018;48.588;10.836;2023-08-06T12:37:28;95964.91;;;16.59;70.11
56142;BME280;42018;48.588;10.836;2023-08-06T12:40:14;95950.88;;;16.92;70.48
56142;BME280;42018;48.588;10.836;2023-08-06T12:42:59;95958.06;;;17.21;68.13
56142;BME280;42018;48.588;10.836;2023-08-06T12:45:44;95954.66;;;17.54;67.03
56142;BME280;42018;48.588;10.836;2023-08-06T12:48:30;95949.78;;;17.35;68.25
56142;BME280;42018;48.588;10.836;2023-08-06T12:51:15;95968.69;;;16.88;68.28
56142;BME280;42018;48.588;10.836;2023-08-06T12:54:01;95955.28;;;17.17;70.11
56142;BME280;42018;48.588;10.836;2023-08-06T12:56:47;95957.03;;;17.13;67.13
56142;BME280;42018;48.588;10.836;2023-08-06T12:59:33;95968.06;;;16.52;71.34
56142;BME280;42018;48.588;10.836;2023-08-06T13:02:18;95969.13;;;16.31;71.06
56142;BME280;42018;48.588;10.836;2023-08-06T13:05:04;95980.78;;;16.26;72.81
56142;BME280;42018;48.588;10.836;2023-08-06T13:07:51;95990.88;;;16.12;74.11
56142;BME280;42018;48.588;10.836;2023-08-06T13:10:36;95973.16;;;15.90;75.68
56142;BME280;42018;48.588;10.836;2023-08-06T13:13:22;95996.44;;;15.80;76.51
56142;BME280;42018;48.588;10.836;2023-08-06T13:16:07;95992.34;;;15.57;77.84
56142;BME280;42018;48.588;10.836;2023-08-06T13:18:52;95993.44;;;15.13;82.74
56142;BME280;42018;48.588;10.836;2023-08-06T13:24:26;96001.16;;;15.49;80.49
56142;BME280;42018;48.588;10.836;2023-08-06T13:27:12;96007.13;;;15.63;76.83
56142;BME280;42018;48.588;10.836;2023-08-06T13:29:57;95996.25;;;16.03;75.39
56142;BME280;42018;48.588;10.836;2023-08-06T13:32:43;95997.06;;;15.95;76.85
56142;BME280;42018;48.588;10.836;2023-08-06T13:35:29;96018.72;;;16.02;76.51
56142;BME280;42018;48.588;10.836;2023-08-06T13:38:15;96014.16;;;15.33;82.00
56142;BME280;42018;48.588;10.836;2023-08-06T13:41:00;96028.69;;;14.83;86.02
56142;BME280;42018;48.588;10.836;2023-08-06T13:43:45;96035.09;;;14.74;86.68
56142;BME280;42018;48.588;10.836;2023-08-06T13:46:31;96030.88;;;14.81;87.25
56142;BME280;42018;48.588;10.836;2023-08-06T13:49:16;96034.31;;;14.82;85.78
56142;BME280;42018;48.588;10.836;2023-08-06T13:52:01;96043.94;;;14.92;85.18
56142;BME280;42018;48.588;10.836;2023-08-06T13:54:47;96038.25;;;14.84;85.16
56142;BME280;42018;48.588;10.836;2023-08-06T13:57:33;96049.88;;;14.49;86.95
56142;BME280;42018;48.588;10.836;2023-08-06T14:00:19;96040.28;;;14.79;85.49
56142;BME280;42018;48.588;10.836;2023-08-06T14:03:04;96044.94;;;14.65;84.69
56142;BME280;42018;48.588;10.836;2023-08-06T14:05:49;96055.94;;;14.72;85.03
56142;BME280;42018;48.588;10.836;2023-08-06T14:08:35;96053.38;;;14.58;83.21
56142;BME280;42018;48.588;10.836;2023-08-06T14:11:20;96052.31;;;14.68;82.35
56142;BME280;42018;48.588;10.836;2023-08-06T14:14:06;96066.19;;;14.87;83.92
56142;BME280;42018;48.588;10.836;2023-08-06T14:16:53;96066.31;;;14.73;81.37
56142;BME280;42018;48.588;10.836;2023-08-06T14:19:39;96073.91;;;14.57;81.05
56142;BME280;42018;48.588;10.836;2023-08-06T14:22:24;96067.13;;;14.51;82.21
56142;BME280;42018;48.588;10.836;2023-08-06T14:25:10;96074.44;;;14.68;83.20
56142;BME280;42018;48.588;10.836;2023-08-06T14:27:55;96096.59;;;14.77;82.62
56142;BME280;42018;48.588;10.836;2023-08-06T14:30:40;96083.59;;;14.84;83.60
56142;BME280;42018;48.588;10.836;2023-08-06T14:33:26;96091.00;;;14.56;84.09
56142;BME280;42018;48.588;10.836;2023-08-06T14:36:11;96088.41;;;14.74;83.88